sensor_id;sensor_type;location;lat;lon;timestamp;pressure;altitude;pressure_sealevel;temperature;humidity
64644;BME280;51056;50.330;7.914;2022-12-05T00:01:47;100602.47;;;2.78;83.82
64644;BME280;51056;50.330;7.914;2022-12-05T00:04:50;100601.47;;;2.85;83.11
64644;BME280;51056;50.330;7.914;2022-12-05T00:07:54;100602.69;;;2.66;83.92
64644;BME280;51056;50.330;7.914;2022-12-05T00:10:57;100606.56;;;2.43;84.42
64644;BME280;51056;50.330;7.914;2022-12-05T00:14:01;100610.56;;;2.60;84.27
64644;BME280;51056;50.330;7.914;2022-12-05T00:17:05;100611.59;;;2.49;84.62
64644;BME280;51056;50.330;7.914;2022-12-05T00:20:08;100610.88;;;2.41;84.48
64644;BME280;51056;50.330;7.914;2022-12-05T00:23:12;100609.78;;;2.54;84.77
64644;BME280;51056;50.330;7.914;2022-12-05T00:26:15;100609.66;;;2.61;83.84
64644;BME280;51056;50.330;7.914;2022-12-05T00:29:18;100611.50;;;2.54;84.53
64644;BME280;51056;50.330;7.914;2022-12-05T00:32:21;100612.19;;;2.64;83.93
64644;BME280;51056;50.330;7.914;2022-12-05T00:35:25;100614.03;;;2.59;84.12
64644;BME280;51056;50.330;7.914;2022-12-05T00:38:28;100608.97;;;2.52;84.70
64644;BME280;51056;50.330;7.914;2022-12-05T00:41:32;100620.25;;;2.47;85.04
64644;BME280;51056;50.330;7.914;2022-12-05T00:44:35;100614.66;;;2.70;83.85
64644;BME280;51056;50.330;7.914;2022-12-05T00:47:39;100611.44;;;2.59;83.63
64644;BME280;51056;50.330;7.914;2022-12-05T00:50:42;100612.41;;;2.51;84.34
64644;BME280;51056;50.330;7.914;2022-12-05T00:53:46;100619.94;;;2.64;83.63
64644;BME280;51056;50.330;7.914;2022-12-05T00:56:50;100617.41;;;2.62;83.47
64644;BME280;51056;50.330;7.914;2022-12-05T00:59:58;100629.38;;;2.65;83.85
64644;BME280;51056;50.330;7.914;2022-12-05T01:03:01;100629.69;;;2.49;83.96
64644;BME280;51056;50.330;7.914;2022-12-05T01:06:05;100632.25;;;2.48;84.08
64644;BME280;51056;50.330;7.914;2022-12-05T01:09:10;100632.88;;;2.62;83.11
64644;BME280;51056;50.330;7.914;2022-12-05T01:12:14;100638.47;;;2.36;84.22
64644;BME280;51056;50.330;7.914;2022-12-05T01:15:17;100640.28;;;2.31;85.18
64644;BME280;51056;50.330;7.914;2022-12-05T01:18:21;100644.72;;;2.23;85.50
64644;BME280;51056;50.330;7.914;2022-12-05T01:21:25;100647.16;;;2.33;84.98
64644;BME280;51056;50.330;7.914;2022-12-05T01:24:29;100651.38;;;2.38;84.88
64644;BME280;51056;50.330;7.914;2022-12-05T01:27:32;100652.31;;;2.32;84.72
64644;BME280;51056;50.330;7.914;2022-12-05T01:30:38;100652.13;;;2.44;85.00
64644;BME280;51056;50.330;7.914;2022-12-05T01:33:41;100659.06;;;2.41;84.45
64644;BME280;51056;50.330;7.914;2022-12-05T01:36:45;100662.72;;;2.26;85.26
64644;BME280;51056;50.330;7.914;2022-12-05T01:39:52;100667.03;;;2.27;85.38
64644;BME280;51056;50.330;7.914;2022-12-05T01:42:55;100659.91;;;2.43;84.30
64644;BME280;51056;50.330;7.914;2022-12-05T01:45:59;100667.56;;;2.47;84.42
64644;BME280;51056;50.330;7.914;2022-12-05T01:49:14;100666.75;;;2.42;84.42
64644;BME280;51056;50.330;7.914;2022-12-05T01:52:20;100671.13;;;2.39;84.49
64644;BME280;51056;50.330;7.914;2022-12-05T01:55:25;100667.88;;;2.26;84.93
64644;BME280;51056;50.330;7.914;2022-12-05T01:58:33;100669.13;;;2.56;83.88
64644;BME280;51056;50.330;7.914;2022-12-05T02:01:39;100668.78;;;2.25;84.77
64644;BME280;51056;50.330;7.914;2022-12-05T02:05:04;100669.38;;;2.41;84.54
64644;BME280;51056;50.330;7.914;2022-12-05T02:08:10;100667.59;;;2.44;84.89
64644;BME280;51056;50.330;7.914;2022-12-05T02:11:14;100666.84;;;2.36;84.87
64644;BME280;51056;50.330;7.914;2022-12-05T02:14:41;100673.22;;;2.14;86.33
64644;BME280;51056;50.330;7.914;2022-12-05T02:18:13;100668.94;;;2.14;86.69
64644;BME280;51056;50.330;7.914;2022-12-05T02:24:58;100672.16;;;2.28;85.23
64644;BME280;51056;50.330;7.914;2022-12-05T02:31:52;100672.84;;;2.38;85.01
64644;BME280;51056;50.330;7.914;2022-12-05T02:35:10;100671.88;;;2.47;84.53
64644;BME280;51056;50.330;7.914;2022-12-05T02:41:49;100669.22;;;2.50;84.70
64644;BME280;51056;50.330;7.914;2022-12-05T02:44:58;100671.34;;;2.25;85.54
64644;BME280;51056;50.330;7.914;2022-12-05T02:48:04;100665.06;;;2.43;84.66
64644;BME280;51056;50.330;7.914;2022-12-05T02:51:10;100669.34;;;2.42;84.57
64644;BME280;51056;50.330;7.914;2022-12-05T02:54:22;100663.88;;;2.61;84.36
64644;BME280;51056;50.330;7.914;2022-12-05T02:57:25;100665.97;;;2.40;84.52
64644;BME280;51056;50.330;7.914;2022-12-05T03:00:30;100669.88;;;2.61;84.26
64644;BME280;51056;50.330;7.914;2022-12-05T03:03:33;100664.50;;;2.24;85.45
64644;BME280;51056;50.330;7.914;2022-12-05T03:06:40;100664.09;;;2.48;84.66
64644;BME280;51056;50.330;7.914;2022-12-05T03:09:50;100657.97;;;2.54;84.15
64644;BME280;51056;50.330;7.914;2022-12-05T03:13:04;100663.44;;;2.36;85.00
64644;BME280;51056;50.330;7.914;2022-12-05T03:16:32;100667.75;;;2.35;85.04
64644;BME280;51056;50.330;7.914;2022-12-05T03:20:02;100660.00;;;2.37;84.80
64644;BME280;51056;50.330;7.914;2022-12-05T03:23:29;100668.50;;;2.43;85.13
64644;BME280;51056;50.330;7.914;2022-12-05T03:26:58;100663.47;;;2.34;85.08
64644;BME280;51056;50.330;7.914;2022-12-05T03:30:13;100666.75;;;2.44;84.73
64644;BME280;51056;50.330;7.914;2022-12-05T03:33:22;100671.41;;;2.22;85.38
64644;BME280;51056;50.330;7.914;2022-12-05T03:36:36;100674.78;;;2.27;85.39
64644;BME280;51056;50.330;7.914;2022-12-05T03:39:46;100677.25;;;2.33;85.22
64644;BME280;51056;50.330;7.914;2022-12-05T03:42:56;100684.03;;;2.39;85.21
64644;BME280;51056;50.330;7.914;2022-12-05T03:50:00;100691.25;;;2.17;85.90
64644;BME280;51056;50.330;7.914;2022-12-05T03:53:10;100693.59;;;2.32;85.63
64644;BME280;51056;50.330;7.914;2022-12-05T03:56:25;100695.00;;;2.51;85.00
64644;BME280;51056;50.330;7.914;2022-12-05T03:59:37;100699.41;;;2.45;85.08
64644;BME280;51056;50.330;7.914;2022-12-05T04:06:30;100697.72;;;2.42;85.07
64644;BME280;51056;50.330;7.914;2022-12-05T04:09:43;100699.47;;;2.42;85.44
64644;BME280;51056;50.330;7.914;2022-12-05T04:12:50;100699.25;;;2.55;84.79
64644;BME280;51056;50.330;7.914;2022-12-05T04:15:57;100704.72;;;2.37;85.38
64644;BME280;51056;50.330;7.914;2022-12-05T04:19:28;100702.19;;;2.34;86.15
64644;BME280;51056;50.330;7.914;2022-12-05T04:22:53;100704.72;;;2.36;85.78
64644;BME280;51056;50.330;7.914;2022-12-05T04:26:08;100707.81;;;2.58;85.24
64644;BME280;51056;50.330;7.914;2022-12-05T04:29:26;100707.25;;;2.40;85.35
64644;BME280;51056;50.330;7.914;2022-12-05T04:32:59;100702.09;;;2.40;85.20
64644;BME280;51056;50.330;7.914;2022-12-05T04:36:16;100703.91;;;2.32;85.87
64644;BME280;51056;50.330;7.914;2022-12-05T04:39:26;100707.31;;;2.36;85.74
64644;BME280;51056;50.330;7.914;2022-12-05T04:42:33;100704.72;;;2.36;86.19
64644;BME280;51056;50.330;7.914;2022-12-05T04:45:40;100702.75;;;2.51;85.65
64644;BME280;51056;50.330;7.914;2022-12-05T04:48:49;100704.56;;;2.46;84.80
64644;BME280;51056;50.330;7.914;2022-12-05T04:51:57;100707.00;;;2.55;85.00
64644;BME280;51056;50.330;7.914;2022-12-05T04:55:11;100713.75;;;2.63;84.54
64644;BME280;51056;50.330;7.914;2022-12-05T04:58:19;100711.19;;;2.63;84.65
64644;BME280;51056;50.330;7.914;2022-12-05T05:01:34;100719.06;;;2.53;84.87
64644;BME280;51056;50.330;7.914;2022-12-05T05:04:46;100721.75;;;2.47;85.24
64644;BME280;51056;50.330;7.914;2022-12-05T05:07:52;100729.72;;;2.32;86.02
64644;BME280;51056;50.330;7.914;2022-12-05T05:11:18;100727.09;;;2.37;86.03
64644;BME280;51056;50.330;7.914;2022-12-05T05:14:22;100730.44;;;2.42;85.84
64644;BME280;51056;50.330;7.914;2022-12-05T05:17:25;100736.44;;;2.42;85.40
64644;BME280;51056;50.330;7.914;2022-12-05T05:20:29;100747.53;;;2.49;85.52
64644;BME280;51056;50.330;7.914;2022-12-05T05:23:32;100739.81;;;2.47;85.66
64644;BME280;51056;50.330;7.914;2022-12-05T05:26:39;100742.66;;;2.30;85.59
64644;BME280;51056;50.330;7.914;2022-12-05T05:29:43;100747.06;;;2.24;86.09
64644;BME280;51056;50.330;7.914;2022-12-05T05:32:47;100741.88;;;2.25;86.62
64644;BME280;51056;50.330;7.914;2022-12-05T05:35:51;100747.06;;;2.24;86.66
64644;BME280;51056;50.330;7.914;2022-12-05T05:38:57;100744.94;;;2.50;85.70
64644;BME280;51056;50.330;7.914;2022-12-05T05:42:00;100750.28;;;2.40;86.05
64644;BME280;51056;50.330;7.914;2022-12-05T05:45:04;100751.94;;;2.42;86.38
64644;BME280;51056;50.330;7.914;2022-12-05T05:48:07;100751.78;;;2.51;85.35
64644;BME280;51056;50.330;7.914;2022-12-05T05:51:11;100743.28;;;2.46;85.49
64644;BME280;51056;50.330;7.914;2022-12-05T05:54:15;100745.69;;;2.57;84.78
64644;BME280;51056;50.330;7.914;2022-12-05T05:57:19;100757.28;;;2.30;86.37
64644;BME280;51056;50.330;7.914;2022-12-05T06:00:27;100757.00;;;2.48;86.20
64644;BME280;51056;50.330;7.914;2022-12-05T06:03:31;100760.72;;;2.29;86.39
64644;BME280;51056;50.330;7.914;2022-12-05T06:06:36;100770.31;;;2.21;86.10
64644;BME280;51056;50.330;7.914;2022-12-05T06:09:39;100762.13;;;2.51;85.92
64644;BME280;51056;50.330;7.914;2022-12-05T06:12:43;100764.72;;;2.50;85.67
64644;BME280;51056;50.330;7.914;2022-12-05T06:15:51;100776.97;;;2.36;86.08
64644;BME280;51056;50.330;7.914;2022-12-05T06:18:54;100777.00;;;2.34;85.86
64644;BME280;51056;50.330;7.914;2022-12-05T06:21:58;100777.00;;;2.34;86.32
64644;BME280;51056;50.330;7.914;2022-12-05T06:25:01;100772.41;;;2.54;85.50
64644;BME280;51056;50.330;7.914;2022-12-05T06:28:04;100777.59;;;2.53;85.98
64644;BME280;51056;50.330;7.914;2022-12-05T06:31:18;100775.81;;;2.56;85.55
64644;BME280;51056;50.330;7.914;2022-12-05T06:34:22;100770.56;;;2.61;84.85
64644;BME280;51056;50.330;7.914;2022-12-05T06:37:25;100776.53;;;2.65;84.83
64644;BME280;51056;50.330;7.914;2022-12-05T06:40:29;100777.66;;;2.48;85.54
64644;BME280;51056;50.330;7.914;2022-12-05T06:43:32;100777.97;;;2.27;86.75
64644;BME280;51056;50.330;7.914;2022-12-05T06:46:36;100785.69;;;2.30;86.60
64644;BME280;51056;50.330;7.914;2022-12-05T06:53:41;100793.47;;;2.27;86.81
64644;BME280;51056;50.330;7.914;2022-12-05T06:56:45;100791.00;;;2.18;87.28
64644;BME280;51056;50.330;7.914;2022-12-05T06:59:49;100787.13;;;2.49;85.83
64644;BME280;51056;50.330;7.914;2022-12-05T07:02:52;100788.72;;;2.55;85.54
64644;BME280;51056;50.330;7.914;2022-12-05T07:05:59;100787.06;;;2.51;85.42
64644;BME280;51056;50.330;7.914;2022-12-05T07:09:03;100796.69;;;2.41;85.98
64644;BME280;51056;50.330;7.914;2022-12-05T07:12:06;100796.66;;;2.44;85.91
64644;BME280;51056;50.330;7.914;2022-12-05T07:15:10;100802.59;;;2.49;86.17
64644;BME280;51056;50.330;7.914;2022-12-05T07:18:14;100801.53;;;2.63;85.38
64644;BME280;51056;50.330;7.914;2022-12-05T07:21:20;100801.53;;;2.63;85.18
64644;BME280;51056;50.330;7.914;2022-12-05T07:24:24;100798.88;;;2.67;84.68
64644;BME280;51056;50.330;7.914;2022-12-05T07:27:28;100806.13;;;2.42;85.88
64644;BME280;51056;50.330;7.914;2022-12-05T07:30:32;100807.81;;;2.46;86.15
64644;BME280;51056;50.330;7.914;2022-12-05T07:33:35;100806.38;;;2.27;86.63
64644;BME280;51056;50.330;7.914;2022-12-05T07:36:39;100815.44;;;2.54;85.81
64644;BME280;51056;50.330;7.914;2022-12-05T07:39:42;100821.44;;;2.56;85.58
64644;BME280;51056;50.330;7.914;2022-12-05T07:42:49;100822.38;;;2.50;86.16
64644;BME280;51056;50.330;7.914;2022-12-05T07:45:52;100817.41;;;2.35;86.87
64644;BME280;51056;50.330;7.914;2022-12-05T07:48:55;100821.56;;;2.47;86.32
64644;BME280;51056;50.330;7.914;2022-12-05T07:51:59;100826.72;;;2.47;86.28
64644;BME280;51056;50.330;7.914;2022-12-05T07:55:03;100815.34;;;2.62;85.57
64644;BME280;51056;50.330;7.914;2022-12-05T07:58:06;100824.31;;;2.35;86.88
64644;BME280;51056;50.330;7.914;2022-12-05T08:01:10;100820.63;;;2.51;86.35
64644;BME280;51056;50.330;7.914;2022-12-05T08:04:14;100823.88;;;2.64;86.19
64644;BME280;51056;50.330;7.914;2022-12-05T08:07:17;100827.31;;;2.66;86.11
64644;BME280;51056;50.330;7.914;2022-12-05T08:10:21;100832.34;;;2.73;85.05
64644;BME280;51056;50.330;7.914;2022-12-05T08:13:24;100832.72;;;2.47;86.07
64644;BME280;51056;50.330;7.914;2022-12-05T08:16:29;100842.03;;;2.59;86.09
64644;BME280;51056;50.330;7.914;2022-12-05T08:19:32;100839.13;;;2.82;85.40
64644;BME280;51056;50.330;7.914;2022-12-05T08:22:36;100849.63;;;2.70;85.69
64644;BME280;51056;50.330;7.914;2022-12-05T08:25:39;100853.00;;;2.75;85.83
64644;BME280;51056;50.330;7.914;2022-12-05T08:28:43;100853.13;;;2.66;86.17
64644;BME280;51056;50.330;7.914;2022-12-05T08:31:48;100863.59;;;2.56;86.11
64644;BME280;51056;50.330;7.914;2022-12-05T08:34:52;100862.53;;;2.71;85.87
64644;BME280;51056;50.330;7.914;2022-12-05T08:37:56;100873.94;;;2.53;86.39
64644;BME280;51056;50.330;7.914;2022-12-05T08:41:05;100882.53;;;2.54;86.66
64644;BME280;51056;50.330;7.914;2022-12-05T08:44:10;100885.19;;;2.49;86.72
64644;BME280;51056;50.330;7.914;2022-12-05T08:47:18;100896.22;;;2.61;86.17
64644;BME280;51056;50.330;7.914;2022-12-05T08:50:21;100903.13;;;2.62;86.53
64644;BME280;51056;50.330;7.914;2022-12-05T08:53:25;100905.41;;;2.80;85.76
64644;BME280;51056;50.330;7.914;2022-12-05T08:56:30;100913.97;;;2.85;85.48
64644;BME280;51056;50.330;7.914;2022-12-05T09:00:24;100918.44;;;2.72;86.00
64644;BME280;51056;50.330;7.914;2022-12-05T09:03:35;100905.44;;;2.78;85.50
64644;BME280;51056;50.330;7.914;2022-12-05T09:06:40;100908.25;;;2.63;86.10
64644;BME280;51056;50.330;7.914;2022-12-05T09:09:43;100912.56;;;2.63;86.19
64644;BME280;51056;50.330;7.914;2022-12-05T09:12:47;100907.50;;;2.52;87.35
64644;BME280;51056;50.330;7.914;2022-12-05T09:15:52;100895.75;;;2.93;86.31
64644;BME280;51056;50.330;7.914;2022-12-05T09:18:57;100902.88;;;2.77;86.21
64644;BME280;51056;50.330;7.914;2022-12-05T09:22:04;100908.00;;;2.82;86.18
64644;BME280;51056;50.330;7.914;2022-12-05T09:25:08;100913.00;;;2.92;85.84
64644;BME280;51056;50.330;7.914;2022-12-05T09:28:13;100909.56;;;2.92;87.66
64644;BME280;51056;50.330;7.914;2022-12-05T09:31:19;100917.03;;;3.10;85.60
64644;BME280;51056;50.330;7.914;2022-12-05T09:34:22;100930.06;;;3.02;85.04
64644;BME280;51056;50.330;7.914;2022-12-05T09:37:28;100925.03;;;2.93;85.27
64644;BME280;51056;50.330;7.914;2022-12-05T09:40:31;100922.38;;;2.98;85.10
64644;BME280;51056;50.330;7.914;2022-12-05T09:44:19;100933.56;;;2.98;85.21
64644;BME280;51056;50.330;7.914;2022-12-05T09:47:29;100934.41;;;2.99;85.59
64644;BME280;51056;50.330;7.914;2022-12-05T09:53:45;100936.88;;;3.08;84.84
64644;BME280;51056;50.330;7.914;2022-12-05T09:56:50;100929.06;;;3.11;84.98
64644;BME280;51056;50.330;7.914;2022-12-05T09:59:55;100928.28;;;3.08;84.40
64644;BME280;51056;50.330;7.914;2022-12-05T10:03:11;100926.41;;;3.16;84.71
64644;BME280;51056;50.330;7.914;2022-12-05T10:06:24;100917.94;;;3.08;84.27
64644;BME280;51056;50.330;7.914;2022-12-05T10:16:34;100921.13;;;3.23;84.38
64644;BME280;51056;50.330;7.914;2022-12-05T10:19:47;100915.31;;;3.09;84.35
64644;BME280;51056;50.330;7.914;2022-12-05T10:22:54;100915.25;;;3.14;84.71
64644;BME280;51056;50.330;7.914;2022-12-05T10:26:08;100919.34;;;3.27;83.75
64644;BME280;51056;50.330;7.914;2022-12-05T10:32:35;100907.19;;;3.35;84.39
64644;BME280;51056;50.330;7.914;2022-12-05T10:35:40;100911.56;;;3.30;84.38
64644;BME280;51056;50.330;7.914;2022-12-05T10:38:44;100903.91;;;3.24;85.12
64644;BME280;51056;50.330;7.914;2022-12-05T10:41:48;100908.97;;;3.29;84.40
64644;BME280;51056;50.330;7.914;2022-12-05T10:45:26;100905.25;;;3.46;83.94
64644;BME280;51056;50.330;7.914;2022-12-05T10:48:40;100906.34;;;3.32;84.44
64644;BME280;51056;50.330;7.914;2022-12-05T10:51:45;100905.44;;;3.34;84.62
64644;BME280;51056;50.330;7.914;2022-12-05T10:55:04;100902.00;;;3.35;83.21
64644;BME280;51056;50.330;7.914;2022-12-05T10:58:11;100893.22;;;3.45;83.51
64644;BME280;51056;50.330;7.914;2022-12-05T11:01:15;100896.44;;;3.57;82.92
64644;BME280;51056;50.330;7.914;2022-12-05T11:04:31;100895.44;;;3.65;83.02
64644;BME280;51056;50.330;7.914;2022-12-05T11:10:46;100897.97;;;3.68;83.09
64644;BME280;51056;50.330;7.914;2022-12-05T11:13:55;100903.06;;;3.73;83.19
64644;BME280;51056;50.330;7.914;2022-12-05T11:17:04;100894.66;;;3.62;83.00
64644;BME280;51056;50.330;7.914;2022-12-05T11:23:28;100895.00;;;3.90;82.20
64644;BME280;51056;50.330;7.914;2022-12-05T11:26:36;100887.25;;;3.88;82.84
64644;BME280;51056;50.330;7.914;2022-12-05T11:29:40;100882.94;;;3.89;82.70
64644;BME280;51056;50.330;7.914;2022-12-05T11:32:44;100877.63;;;3.95;81.87
64644;BME280;51056;50.330;7.914;2022-12-05T11:35:51;100880.91;;;4.05;81.57
64644;BME280;51056;50.330;7.914;2022-12-05T11:38:57;100880.97;;;4.02;82.33
64644;BME280;51056;50.330;7.914;2022-12-05T11:45:34;100878.91;;;4.17;82.09
64644;BME280;51056;50.330;7.914;2022-12-05T12:09:29;100881.84;;;4.01;85.30
64644;BME280;51056;50.330;7.914;2022-12-05T12:13:27;100894.78;;;4.01;84.18
64644;BME280;51056;50.330;7.914;2022-12-05T12:36:14;100899.63;;;4.19;84.19
64644;BME280;51056;50.330;7.914;2022-12-05T12:56:05;100884.19;;;4.13;84.74
64644;BME280;51056;50.330;7.914;2022-12-05T13:03:10;100884.88;;;4.21;85.86
64644;BME280;51056;50.330;7.914;2022-12-05T13:12:32;100892.47;;;4.30;84.64
64644;BME280;51056;50.330;7.914;2022-12-05T13:15:44;100883.19;;;4.20;85.14
64644;BME280;51056;50.330;7.914;2022-12-05T13:18:49;100879.47;;;4.33;84.95
64644;BME280;51056;50.330;7.914;2022-12-05T13:21:55;100875.28;;;4.28;84.99
64644;BME280;51056;50.330;7.914;2022-12-05T13:24:59;100881.19;;;4.33;85.50
64644;BME280;51056;50.330;7.914;2022-12-05T13:28:04;100874.03;;;4.46;85.59
64644;BME280;51056;50.330;7.914;2022-12-05T13:31:09;100884.69;;;4.30;86.21
64644;BME280;51056;50.330;7.914;2022-12-05T13:37:33;100890.59;;;4.38;86.57
64644;BME280;51056;50.330;7.914;2022-12-05T13:40:55;100894.16;;;4.33;86.63
64644;BME280;51056;50.330;7.914;2022-12-05T13:44:29;100895.78;;;4.37;87.15
64644;BME280;51056;50.330;7.914;2022-12-05T13:51:32;100895.78;;;4.37;87.38
64644;BME280;51056;50.330;7.914;2022-12-05T13:54:43;100902.88;;;4.29;86.66
64644;BME280;51056;50.330;7.914;2022-12-05T13:57:50;100900.41;;;4.21;87.39
64644;BME280;51056;50.330;7.914;2022-12-05T14:04:51;100896.72;;;4.34;86.53
64644;BME280;51056;50.330;7.914;2022-12-05T14:07:58;100903.41;;;4.45;86.69
64644;BME280;51056;50.330;7.914;2022-12-05T14:11:08;100906.78;;;4.47;86.79
64644;BME280;51056;50.330;7.914;2022-12-05T14:14:11;100902.25;;;4.16;88.36
64644;BME280;51056;50.330;7.914;2022-12-05T14:17:16;100897.81;;;4.21;88.33
64644;BME280;51056;50.330;7.914;2022-12-05T14:27:40;100905.75;;;4.15;88.26
64644;BME280;51056;50.330;7.914;2022-12-05T14:31:04;100908.31;;;4.15;88.52
64644;BME280;51056;50.330;7.914;2022-12-05T14:34:27;100914.84;;;4.34;88.02
64644;BME280;51056;50.330;7.914;2022-12-05T14:37:37;100911.25;;;4.40;87.36
64644;BME280;51056;50.330;7.914;2022-12-05T14:40:45;100918.22;;;4.36;87.49
64644;BME280;51056;50.330;7.914;2022-12-05T14:43:54;100917.38;;;4.37;87.14
64644;BME280;51056;50.330;7.914;2022-12-05T14:47:03;100916.22;;;4.07;88.94
64644;BME280;51056;50.330;7.914;2022-12-05T14:50:39;100917.78;;;4.16;88.40
64644;BME280;51056;50.330;7.914;2022-12-05T14:53:43;100917.59;;;4.25;88.05
64644;BME280;51056;50.330;7.914;2022-12-05T14:56:53;100914.97;;;4.28;87.72
64644;BME280;51056;50.330;7.914;2022-12-05T15:00:06;100915.09;;;4.20;88.79
64644;BME280;51056;50.330;7.914;2022-12-05T15:03:20;100919.53;;;4.14;89.19
64644;BME280;51056;50.330;7.914;2022-12-05T15:06:24;100912.38;;;4.28;88.90
64644;BME280;51056;50.330;7.914;2022-12-05T15:09:34;100917.59;;;4.25;88.82
64644;BME280;51056;50.330;7.914;2022-12-05T15:12:49;100919.59;;;4.11;88.91
64644;BME280;51056;50.330;7.914;2022-12-05T15:15:59;100911.75;;;4.15;89.00
64644;BME280;51056;50.330;7.914;2022-12-05T15:19:08;100915.38;;;4.07;89.39
64644;BME280;51056;50.330;7.914;2022-12-05T15:22:19;100918.75;;;4.10;88.78
64644;BME280;51056;50.330;7.914;2022-12-05T15:25:26;100920.75;;;3.96;89.24
64644;BME280;51056;50.330;7.914;2022-12-05T15:28:31;100916.94;;;4.14;89.46
64644;BME280;51056;50.330;7.914;2022-12-05T15:31:43;100915.66;;;3.91;89.45
64644;BME280;51056;50.330;7.914;2022-12-05T15:44:28;100926.94;;;3.87;90.12
64644;BME280;51056;50.330;7.914;2022-12-05T15:47:32;100930.22;;;3.95;90.07
64644;BME280;51056;50.330;7.914;2022-12-05T15:50:49;100936.84;;;4.12;89.28
64644;BME280;51056;50.330;7.914;2022-12-05T15:54:17;100940.50;;;4.00;90.09
64644;BME280;51056;50.330;7.914;2022-12-05T15:57:29;100942.31;;;3.96;90.36
64644;BME280;51056;50.330;7.914;2022-12-05T16:00:37;100943.91;;;4.04;89.55
64644;BME280;51056;50.330;7.914;2022-12-05T16:04:00;100947.38;;;4.03;89.85
64644;BME280;51056;50.330;7.914;2022-12-05T16:07:11;100949.97;;;4.01;90.18
64644;BME280;51056;50.330;7.914;2022-12-05T16:10:20;100952.72;;;3.93;90.55
64644;BME280;51056;50.330;7.914;2022-12-05T16:13:48;100947.38;;;4.03;89.96
64644;BME280;51056;50.330;7.914;2022-12-05T16:16:57;100945.59;;;4.05;89.63
64644;BME280;51056;50.330;7.914;2022-12-05T16:20:21;100950.66;;;4.12;89.82
64644;BME280;51056;50.330;7.914;2022-12-05T16:23:32;100942.31;;;3.96;90.26
64644;BME280;51056;50.330;7.914;2022-12-05T16:26:40;100952.28;;;4.16;90.12
64644;BME280;51056;50.330;7.914;2022-12-05T16:29:44;100953.91;;;4.22;89.58
64644;BME280;51056;50.330;7.914;2022-12-05T16:32:57;100953.41;;;4.03;89.58
64644;BME280;51056;50.330;7.914;2022-12-05T16:36:11;100953.41;;;4.03;89.84
64644;BME280;51056;50.330;7.914;2022-12-05T16:39:16;100956.84;;;4.04;89.90
64644;BME280;51056;50.330;7.914;2022-12-05T16:42:22;100961.91;;;4.08;89.27
64644;BME280;51056;50.330;7.914;2022-12-05T16:45:40;100963.59;;;4.11;89.46
64644;BME280;51056;50.330;7.914;2022-12-05T16:49:13;100959.41;;;4.04;89.66
64644;BME280;51056;50.330;7.914;2022-12-05T16:52:18;100962.78;;;4.09;89.49
64644;BME280;51056;50.330;7.914;2022-12-05T16:55:22;100959.47;;;4.01;90.19
64644;BME280;51056;50.330;7.914;2022-12-05T16:58:28;100964.50;;;4.10;89.86
64644;BME280;51056;50.330;7.914;2022-12-05T17:01:34;100959.25;;;4.13;89.56
64644;BME280;51056;50.330;7.914;2022-12-05T17:04:37;100967.66;;;3.76;91.20
64644;BME280;51056;50.330;7.914;2022-12-05T17:07:40;100963.28;;;3.81;91.61
64644;BME280;51056;50.330;7.914;2022-12-05T17:10:44;100973.88;;;3.67;91.93
64644;BME280;51056;50.330;7.914;2022-12-05T17:13:48;100980.84;;;3.62;91.85
64644;BME280;51056;50.330;7.914;2022-12-05T17:16:52;100974.72;;;3.68;92.47
64644;BME280;51056;50.330;7.914;2022-12-05T17:19:55;100976.84;;;3.43;92.91
64644;BME280;51056;50.330;7.914;2022-12-05T17:23:23;100981.88;;;3.52;93.22
64644;BME280;51056;50.330;7.914;2022-12-05T17:27:15;100975.66;;;3.64;92.68
64644;BME280;51056;50.330;7.914;2022-12-05T17:30:19;100972.81;;;3.78;91.78
64644;BME280;51056;50.330;7.914;2022-12-05T17:33:23;100983.88;;;3.87;91.26
64644;BME280;51056;50.330;7.914;2022-12-05T17:36:27;100974.16;;;3.99;91.23
64644;BME280;51056;50.330;7.914;2022-12-05T17:39:31;100972.50;;;3.96;90.94
64644;BME280;51056;50.330;7.914;2022-12-05T17:42:34;100975.84;;;4.03;90.00
64644;BME280;51056;50.330;7.914;2022-12-05T17:45:37;100982.59;;;4.10;90.08
64644;BME280;51056;50.330;7.914;2022-12-05T17:48:41;100976.59;;;4.08;89.73
64644;BME280;51056;50.330;7.914;2022-12-05T17:51:44;100982.84;;;3.96;90.42
64644;BME280;51056;50.330;7.914;2022-12-05T17:54:49;100987.16;;;3.95;89.90
64644;BME280;51056;50.330;7.914;2022-12-05T17:57:54;100986.28;;;3.96;89.28
64644;BME280;51056;50.330;7.914;2022-12-05T18:00:59;100984.47;;;4.02;89.49
64644;BME280;51056;50.330;7.914;2022-12-05T18:04:03;100985.25;;;4.07;89.49
64644;BME280;51056;50.330;7.914;2022-12-05T18:07:07;100982.75;;;4.02;89.71
64644;BME280;51056;50.330;7.914;2022-12-05T18:10:13;100994.25;;;3.84;91.18
64644;BME280;51056;50.330;7.914;2022-12-05T18:13:17;100988.25;;;3.84;91.46
64644;BME280;51056;50.330;7.914;2022-12-05T18:16:21;100985.56;;;3.90;91.25
64644;BME280;51056;50.330;7.914;2022-12-05T18:19:25;100992.22;;;4.02;90.81
64644;BME280;51056;50.330;7.914;2022-12-05T18:22:28;100989.84;;;3.91;90.98
64644;BME280;51056;50.330;7.914;2022-12-05T18:25:31;100980.22;;;3.97;90.73
64644;BME280;51056;50.330;7.914;2022-12-05T18:28:39;100986.31;;;3.95;90.59
64644;BME280;51056;50.330;7.914;2022-12-05T18:31:44;100988.94;;;3.92;90.64
64644;BME280;51056;50.330;7.914;2022-12-05T18:34:49;100990.53;;;4.01;90.25
64644;BME280;51056;50.330;7.914;2022-12-05T18:37:54;100993.13;;;4.01;89.82
64644;BME280;51056;50.330;7.914;2022-12-05T18:41:02;100990.69;;;3.91;90.30
64644;BME280;51056;50.330;7.914;2022-12-05T18:44:06;100988.03;;;3.96;90.68
64644;BME280;51056;50.330;7.914;2022-12-05T18:47:11;100988.66;;;4.09;89.81
64644;BME280;51056;50.330;7.914;2022-12-05T18:50:20;100982.81;;;3.99;90.01
64644;BME280;51056;50.330;7.914;2022-12-05T18:53:23;100981.91;;;4.00;90.12
64644;BME280;51056;50.330;7.914;2022-12-05T18:56:31;100980.88;;;4.10;89.55
64644;BME280;51056;50.330;7.914;2022-12-05T18:59:38;100988.00;;;3.97;89.73